createdAt,value
2018-05-10T00:03:00.000Z,97911
2018-05-10T00:08:00.000Z,97898
2018-05-10T00:13:00.000Z,97908
2018-05-10T00:18:00.000Z,97904
2018-05-10T00:23:00.000Z,97900
2018-05-10T00:28:00.000Z,97904
2018-05-10T00:33:00.000Z,97898
2018-05-10T00:38:00.000Z,97893
2018-05-10T00:43:00.000Z,97891
2018-05-10T00:49:00.000Z,97882
2018-05-10T00:54:00.000Z,97879
2018-05-10T00:59:00.000Z,97886
2018-05-10T01:04:00.000Z,97887
2018-05-10T01:09:00.000Z,97880
2018-05-10T01:14:00.000Z,97886
2018-05-10T01:19:00.000Z,97879
2018-05-10T01:24:00.000Z,97870
2018-05-10T01:29:00.000Z,97872
2018-05-10T01:34:00.000Z,97873
2018-05-10T01:39:00.000Z,97877
2018-05-10T01:44:00.000Z,97875
2018-05-10T01:49:00.000Z,97865
2018-05-10T01:54:00.000Z,97882
2018-05-10T01:59:00.000Z,97888
2018-05-10T02:04:00.000Z,97869
2018-05-10T02:09:00.000Z,97877
2018-05-10T02:14:00.000Z,97885
2018-05-10T02:19:00.000Z,97891
2018-05-10T02:24:00.000Z,97903
2018-05-10T02:29:00.000Z,97888
2018-05-10T02:34:00.000Z,97901
2018-05-10T02:39:00.000Z,97901
2018-05-10T02:44:00.000Z,97911
2018-05-10T02:49:00.000Z,97921
2018-05-10T02:54:00.000Z,97929
2018-05-10T02:59:00.000Z,97918
2018-05-10T03:04:00.000Z,97934
2018-05-10T03:09:00.000Z,97934
2018-05-10T03:14:00.000Z,97937
2018-05-10T03:19:00.000Z,97948
2018-05-10T03:24:00.000Z,97957
2018-05-10T03:29:00.000Z,97955
2018-05-10T03:34:00.000Z,97956
2018-05-10T03:39:00.000Z,97967
2018-05-10T03:44:00.000Z,97976
2018-05-10T03:49:00.000Z,97964
2018-05-10T03:54:00.000Z,97967
2018-05-10T03:59:00.000Z,97974
2018-05-10T04:04:00.000Z,97970
2018-05-10T04:09:00.000Z,97971
2018-05-10T04:14:00.000Z,97978
2018-05-10T04:19:00.000Z,97982
2018-05-10T04:24:00.000Z,97974
2018-05-10T04:29:00.000Z,97982
2018-05-10T04:34:00.000Z,97991
2018-05-10T04:39:00.000Z,97990
2018-05-10T04:44:00.000Z,97996
2018-05-10T04:49:00.000Z,97994
2018-05-10T04:54:00.000Z,97995
2018-05-10T04:59:00.000Z,98004
2018-05-10T05:04:00.000Z,98007
2018-05-10T05:09:00.000Z,98007
2018-05-10T05:14:00.000Z,98009
2018-05-10T05:19:00.000Z,98007
2018-05-10T05:24:00.000Z,98014
2018-05-10T05:29:00.000Z,98025
2018-05-10T05:34:00.000Z,98030
2018-05-10T05:39:00.000Z,98035
2018-05-10T05:44:00.000Z,98039
2018-05-10T05:49:00.000Z,98053
2018-05-10T05:54:00.000Z,98047
2018-05-10T05:59:00.000Z,98053
2018-05-10T06:04:00.000Z,98062
2018-05-10T06:09:00.000Z,98069
2018-05-10T06:14:00.000Z,98075
2018-05-10T06:19:00.000Z,98081
2018-05-10T06:24:00.000Z,98099
2018-05-10T06:29:00.000Z,98088
2018-05-10T06:34:00.000Z,98092
2018-05-10T06:39:00.000Z,98094
2018-05-10T06:44:00.000Z,98102
2018-05-10T06:49:00.000Z,98101
2018-05-10T06:55:00.000Z,98114
2018-05-10T07:00:00.000Z,98108
2018-05-10T07:05:00.000Z,98104
2018-05-10T07:10:00.000Z,98105
2018-05-10T07:15:00.000Z,98114
2018-05-10T07:20:00.000Z,98113
2018-05-10T07:25:00.000Z,98118
2018-05-10T07:30:00.000Z,98115
2018-05-10T07:35:00.000Z,98117
2018-05-10T07:40:00.000Z,98123
2018-05-10T07:45:00.000Z,98125
2018-05-10T07:50:00.000Z,98122
2018-05-10T07:55:00.000Z,98121
2018-05-10T08:00:00.000Z,98134
2018-05-10T08:05:00.000Z,98131
2018-05-10T08:10:00.000Z,98135
2018-05-10T08:15:00.000Z,98142
2018-05-10T08:20:00.000Z,98141
2018-05-10T08:25:00.000Z,98151
2018-05-10T08:30:00.000Z,98146
2018-05-10T08:35:00.000Z,98150
2018-05-10T08:40:00.000Z,98151
2018-05-10T08:45:00.000Z,98149
2018-05-10T08:50:00.000Z,98147
2018-05-10T08:55:00.000Z,98149
2018-05-10T09:00:00.000Z,98147
2018-05-10T09:05:00.000Z,98146
2018-05-10T09:10:00.000Z,98154
2018-05-10T09:15:00.000Z,98155
2018-05-10T09:20:00.000Z,98164
2018-05-10T09:25:00.000Z,98154
2018-05-10T09:30:00.000Z,98162
2018-05-10T09:35:00.000Z,98165
2018-05-10T09:40:00.000Z,98165
2018-05-10T09:45:00.000Z,98168
2018-05-10T09:50:00.000Z,98168
2018-05-10T09:55:00.000Z,98166
2018-05-10T10:00:00.000Z,98167
2018-05-10T10:05:00.000Z,98165
2018-05-10T10:10:00.000Z,98164
2018-05-10T10:15:00.000Z,98158
2018-05-10T10:20:00.000Z,98170
2018-05-10T10:25:00.000Z,98174
2018-05-10T10:30:00.000Z,98169
2018-05-10T10:35:00.000Z,98177
2018-05-10T10:40:00.000Z,98169
2018-05-10T10:45:00.000Z,98165
2018-05-10T10:50:00.000Z,98169
2018-05-10T10:55:00.000Z,98172
2018-05-10T11:00:00.000Z,98167
2018-05-10T11:05:00.000Z,98160
2018-05-10T11:10:00.000Z,98164
2018-05-10T11:15:00.000Z,98159
2018-05-10T11:20:00.000Z,98152
2018-05-10T11:25:00.000Z,98153
2018-05-10T11:30:00.000Z,98152
2018-05-10T11:35:00.000Z,98155
2018-05-10T11:40:00.000Z,98168
2018-05-10T11:45:00.000Z,98167
2018-05-10T11:50:00.000Z,98156
2018-05-10T11:55:00.000Z,98142
2018-05-10T12:00:00.000Z,98136
2018-05-10T12:05:00.000Z,98139
2018-05-10T12:10:00.000Z,98150
2018-05-10T12:15:00.000Z,98146
2018-05-10T12:20:00.000Z,98143
2018-05-10T12:25:00.000Z,98145
2018-05-10T12:30:00.000Z,98141
2018-05-10T12:35:00.000Z,98141
2018-05-10T12:40:00.000Z,98147
2018-05-10T12:45:00.000Z,98145
2018-05-10T12:50:00.000Z,98145
2018-05-10T12:55:00.000Z,98153
2018-05-10T13:00:00.000Z,98147
2018-05-10T13:06:00.000Z,98151
2018-05-10T13:11:00.000Z,98149
2018-05-10T13:16:00.000Z,98152
2018-05-10T13:21:00.000Z,98150
2018-05-10T13:26:00.000Z,98148
2018-05-10T13:31:00.000Z,98148
2018-05-10T13:36:00.000Z,98137
2018-05-10T13:41:00.000Z,98139
2018-05-10T13:46:00.000Z,98134
2018-05-10T13:51:00.000Z,98133
2018-05-10T13:56:00.000Z,98130
2018-05-10T14:01:00.000Z,98125
2018-05-10T14:06:00.000Z,98124
2018-05-10T14:11:00.000Z,98125
2018-05-10T14:16:00.000Z,98132
2018-05-10T14:21:00.000Z,98134
2018-05-10T14:26:00.000Z,98132
2018-05-10T14:31:00.000Z,98144
2018-05-10T14:36:00.000Z,98149
2018-05-10T14:41:00.000Z,98143
2018-05-10T14:46:00.000Z,98150
2018-05-10T14:51:00.000Z,98157
2018-05-10T14:56:00.000Z,98161
2018-05-10T15:01:00.000Z,98171
2018-05-10T15:06:00.000Z,98182
2018-05-10T15:11:00.000Z,98181
2018-05-10T15:16:00.000Z,98180
2018-05-10T15:21:00.000Z,98199
2018-05-10T15:26:00.000Z,98209
2018-05-10T15:31:00.000Z,98200
2018-05-10T15:36:00.000Z,98218
2018-05-10T15:41:00.000Z,98214
2018-05-10T15:46:00.000Z,98211
2018-05-10T15:51:00.000Z,98213
2018-05-10T15:56:00.000Z,98200
2018-05-10T16:01:00.000Z,98190
2018-05-10T16:06:00.000Z,98184
2018-05-10T16:11:00.000Z,98193
2018-05-10T16:16:00.000Z,98188
2018-05-10T16:21:00.000Z,98187
2018-05-10T16:26:00.000Z,98199
2018-05-10T16:31:00.000Z,98206
2018-05-10T16:36:00.000Z,98205
2018-05-10T16:41:00.000Z,98209
2018-05-10T16:46:00.000Z,98215
2018-05-10T16:51:00.000Z,98227
2018-05-10T16:56:00.000Z,98238
2018-05-10T17:01:00.000Z,98240
2018-05-10T17:06:00.000Z,98253
2018-05-10T17:11:00.000Z,98263
2018-05-10T17:16:00.000Z,98288
2018-05-10T17:21:00.000Z,98288
2018-05-10T17:26:00.000Z,98300
2018-05-10T17:31:00.000Z,98323
2018-05-10T17:36:00.000Z,98340
2018-05-10T17:41:00.000Z,98351
2018-05-10T17:46:00.000Z,98363
2018-05-10T17:51:00.000Z,98384
2018-05-10T17:56:00.000Z,98414
2018-05-10T18:01:00.000Z,98424
2018-05-10T18:06:00.000Z,98431
2018-05-10T18:11:00.000Z,98435
2018-05-10T18:16:00.000Z,98432
2018-05-10T18:21:00.000Z,98424
2018-05-10T18:26:00.000Z,98447
2018-05-10T18:31:00.000Z,98438
2018-05-10T18:36:00.000Z,98445
2018-05-10T18:41:00.000Z,98445
2018-05-10T18:46:00.000Z,98458
2018-05-10T18:51:00.000Z,98459
2018-05-10T18:56:00.000Z,98467
2018-05-10T19:01:00.000Z,98479
2018-05-10T19:07:00.000Z,98466
2018-05-10T19:12:00.000Z,98464
2018-05-10T19:17:00.000Z,98467
2018-05-10T19:22:00.000Z,98473
2018-05-10T19:27:00.000Z,98476
2018-05-10T19:32:00.000Z,98483
2018-05-10T19:37:00.000Z,98481
2018-05-10T19:42:00.000Z,98475
2018-05-10T19:47:00.000Z,98488
2018-05-10T19:52:00.000Z,98502
2018-05-10T19:57:00.000Z,98515
2018-05-10T20:02:00.000Z,98522
2018-05-10T20:07:00.000Z,98520
2018-05-10T20:12:00.000Z,98532
2018-05-10T20:17:00.000Z,98535
2018-05-10T20:22:00.000Z,98535
2018-05-10T20:27:00.000Z,98550
2018-05-10T20:32:00.000Z,98543
2018-05-10T20:37:00.000Z,98536
2018-05-10T20:42:00.000Z,98536
2018-05-10T20:47:00.000Z,98555
2018-05-10T20:52:00.000Z,98548
2018-05-10T20:57:00.000Z,98541
2018-05-10T21:02:00.000Z,98565
2018-05-10T21:07:00.000Z,98574
2018-05-10T21:12:00.000Z,98580
2018-05-10T21:17:00.000Z,98581
2018-05-10T21:22:00.000Z,98581
2018-05-10T21:27:00.000Z,98593
2018-05-10T21:32:00.000Z,98594
2018-05-10T21:37:00.000Z,98606
2018-05-10T21:42:00.000Z,98618
2018-05-10T21:47:00.000Z,98638
2018-05-10T21:52:00.000Z,98647
2018-05-10T21:57:00.000Z,98657
2018-05-10T22:02:00.000Z,98665
2018-05-10T22:07:00.000Z,98655
2018-05-10T22:12:00.000Z,98663
2018-05-10T22:17:00.000Z,98666
2018-05-10T22:22:00.000Z,98661
2018-05-10T22:27:00.000Z,98666
2018-05-10T22:32:00.000Z,98670
2018-05-10T22:37:00.000Z,98666
2018-05-10T22:42:00.000Z,98671
2018-05-10T22:47:00.000Z,98673
2018-05-10T22:52:00.000Z,98681
2018-05-10T22:57:00.000Z,98686
2018-05-10T23:02:00.000Z,98690
2018-05-10T23:07:00.000Z,98693
2018-05-10T23:12:00.000Z,98697
2018-05-10T23:17:00.000Z,98705
2018-05-10T23:22:00.000Z,98704
2018-05-10T23:27:00.000Z,98704
2018-05-10T23:32:00.000Z,98720
2018-05-10T23:37:00.000Z,98730
2018-05-10T23:42:00.000Z,98726
2018-05-10T23:47:00.000Z,98738
2018-05-10T23:52:00.000Z,98741
2018-05-10T23:57:00.000Z,98737
